sensor_id;sensor_type;location;lat;lon;timestamp;P1;durP1;ratioP1;P2;durP2;ratioP2
76867;SDS011;66168;45.478;11.060;2023-02-17T00:03:50;102.50;;;53.30;;
76867;SDS011;66168;45.478;11.060;2023-02-17T00:06:19;110.30;;;57.60;;
76867;SDS011;66168;45.478;11.060;2023-02-17T00:08:47;131.10;;;67.40;;
76867;SDS011;66168;45.478;11.060;2023-02-17T00:11:14;135.80;;;66.20;;
76867;SDS011;66168;45.478;11.060;2023-02-17T00:13:42;135.80;;;67.60;;
76867;SDS011;66168;45.478;11.060;2023-02-17T00:16:11;128.70;;;64.20;;
76867;SDS011;66168;45.478;11.060;2023-02-17T00:18:40;122.10;;;65.00;;
76867;SDS011;66168;45.478;11.060;2023-02-17T00:21:11;117.70;;;61.30;;
76867;SDS011;66168;45.478;11.060;2023-02-17T00:23:40;118.90;;;61.30;;
76867;SDS011;66168;45.478;11.060;2023-02-17T00:26:06;119.50;;;60.50;;
76867;SDS011;66168;45.478;11.060;2023-02-17T00:28:34;128.30;;;62.10;;
76867;SDS011;66168;45.478;11.060;2023-02-17T00:31:08;120.30;;;62.10;;
76867;SDS011;66168;45.478;11.060;2023-02-17T00:33:36;126.00;;;61.50;;
76867;SDS011;66168;45.478;11.060;2023-02-17T00:36:04;111.30;;;60.90;;
76867;SDS011;66168;45.478;11.060;2023-02-17T00:38:33;112.00;;;58.30;;
76867;SDS011;66168;45.478;11.060;2023-02-17T00:41:00;132.00;;;64.90;;
76867;SDS011;66168;45.478;11.060;2023-02-17T00:43:26;138.90;;;70.80;;
76867;SDS011;66168;45.478;11.060;2023-02-17T00:45:54;125.60;;;66.60;;
76867;SDS011;66168;45.478;11.060;2023-02-17T00:48:21;123.80;;;64.10;;
76867;SDS011;66168;45.478;11.060;2023-02-17T00:50:49;126.80;;;62.40;;
76867;SDS011;66168;45.478;11.060;2023-02-17T00:53:15;118.40;;;59.40;;
76867;SDS011;66168;45.478;11.060;2023-02-17T00:55:42;122.90;;;61.70;;
76867;SDS011;66168;45.478;11.060;2023-02-17T00:58:12;124.60;;;60.20;;
76867;SDS011;66168;45.478;11.060;2023-02-17T01:00:39;117.10;;;62.00;;
76867;SDS011;66168;45.478;11.060;2023-02-17T01:03:06;123.40;;;62.30;;
76867;SDS011;66168;45.478;11.060;2023-02-17T01:05:33;124.20;;;60.50;;
76867;SDS011;66168;45.478;11.060;2023-02-17T01:08:00;118.10;;;62.10;;
76867;SDS011;66168;45.478;11.060;2023-02-17T01:10:27;125.60;;;61.80;;
76867;SDS011;66168;45.478;11.060;2023-02-17T01:12:54;110.00;;;56.90;;
76867;SDS011;66168;45.478;11.060;2023-02-17T01:15:21;113.70;;;61.20;;
76867;SDS011;66168;45.478;11.060;2023-02-17T01:17:48;132.50;;;63.30;;
76867;SDS011;66168;45.478;11.060;2023-02-17T01:20:14;134.60;;;68.40;;
76867;SDS011;66168;45.478;11.060;2023-02-17T01:22:41;134.30;;;65.30;;
76867;SDS011;66168;45.478;11.060;2023-02-17T01:25:08;131.30;;;67.10;;
76867;SDS011;66168;45.478;11.060;2023-02-17T01:27:35;121.10;;;62.60;;
76867;SDS011;66168;45.478;11.060;2023-02-17T01:30:03;127.80;;;62.80;;
76867;SDS011;66168;45.478;11.060;2023-02-17T01:32:30;123.90;;;63.60;;
76867;SDS011;66168;45.478;11.060;2023-02-17T01:34:57;115.60;;;58.70;;
76867;SDS011;66168;45.478;11.060;2023-02-17T01:37:24;119.80;;;61.20;;
76867;SDS011;66168;45.478;11.060;2023-02-17T01:39:53;122.70;;;61.60;;
76867;SDS011;66168;45.478;11.060;2023-02-17T01:42:19;119.50;;;61.10;;
76867;SDS011;66168;45.478;11.060;2023-02-17T01:47:59;121.00;;;63.50;;
76867;SDS011;66168;45.478;11.060;2023-02-17T01:50:33;117.20;;;60.60;;
76867;SDS011;66168;45.478;11.060;2023-02-17T01:53:04;137.50;;;68.10;;
76867;SDS011;66168;45.478;11.060;2023-02-17T01:55:33;142.30;;;69.10;;
76867;SDS011;66168;45.478;11.060;2023-02-17T01:58:03;129.60;;;63.90;;
76867;SDS011;66168;45.478;11.060;2023-02-17T02:00:34;127.60;;;64.70;;
76867;SDS011;66168;45.478;11.060;2023-02-17T02:03:03;135.50;;;68.80;;
76867;SDS011;66168;45.478;11.060;2023-02-17T02:05:34;126.60;;;63.20;;
76867;SDS011;66168;45.478;11.060;2023-02-17T02:08:03;123.90;;;67.40;;
76867;SDS011;66168;45.478;11.060;2023-02-17T02:10:32;129.10;;;63.00;;
76867;SDS011;66168;45.478;11.060;2023-02-17T02:12:58;133.50;;;65.00;;
76867;SDS011;66168;45.478;11.060;2023-02-17T02:15:26;127.00;;;64.00;;
76867;SDS011;66168;45.478;11.060;2023-02-17T02:32:53;142.80;;;69.10;;
76867;SDS011;66168;45.478;11.060;2023-02-17T02:38:10;133.40;;;66.10;;
76867;SDS011;66168;45.478;11.060;2023-02-17T02:40:39;134.30;;;66.40;;
76867;SDS011;66168;45.478;11.060;2023-02-17T02:43:12;128.30;;;64.40;;
76867;SDS011;66168;45.478;11.060;2023-02-17T02:45:40;132.80;;;65.40;;
76867;SDS011;66168;45.478;11.060;2023-02-17T02:48:07;132.90;;;64.20;;
76867;SDS011;66168;45.478;11.060;2023-02-17T02:56:01;138.10;;;67.50;;
76867;SDS011;66168;45.478;11.060;2023-02-17T03:06:58;149.90;;;70.80;;
76867;SDS011;66168;45.478;11.060;2023-02-17T03:09:50;138.70;;;69.60;;
76867;SDS011;66168;45.478;11.060;2023-02-17T03:12:19;132.90;;;67.10;;
76867;SDS011;66168;45.478;11.060;2023-02-17T03:14:49;136.30;;;66.50;;
76867;SDS011;66168;45.478;11.060;2023-02-17T03:17:21;141.40;;;67.60;;
76867;SDS011;66168;45.478;11.060;2023-02-17T03:19:48;138.90;;;67.20;;
76867;SDS011;66168;45.478;11.060;2023-02-17T03:22:18;136.40;;;68.10;;
76867;SDS011;66168;45.478;11.060;2023-02-17T03:24:46;135.30;;;71.80;;
76867;SDS011;66168;45.478;11.060;2023-02-17T03:27:13;133.60;;;68.60;;
76867;SDS011;66168;45.478;11.060;2023-02-17T03:29:40;130.40;;;65.70;;
76867;SDS011;66168;45.478;11.060;2023-02-17T03:32:07;129.90;;;63.70;;
76867;SDS011;66168;45.478;11.060;2023-02-17T03:34:34;131.30;;;67.70;;
76867;SDS011;66168;45.478;11.060;2023-02-17T03:37:01;143.50;;;70.80;;
76867;SDS011;66168;45.478;11.060;2023-02-17T03:39:28;144.70;;;70.60;;
76867;SDS011;66168;45.478;11.060;2023-02-17T03:41:55;142.10;;;68.80;;
76867;SDS011;66168;45.478;11.060;2023-02-17T03:44:22;130.70;;;65.00;;
76867;SDS011;66168;45.478;11.060;2023-02-17T03:46:49;127.50;;;64.90;;
76867;SDS011;66168;45.478;11.060;2023-02-17T03:49:15;132.00;;;64.70;;
76867;SDS011;66168;45.478;11.060;2023-02-17T03:51:42;131.60;;;62.90;;
76867;SDS011;66168;45.478;11.060;2023-02-17T03:54:09;126.70;;;61.50;;
76867;SDS011;66168;45.478;11.060;2023-02-17T03:56:35;123.80;;;60.60;;
76867;SDS011;66168;45.478;11.060;2023-02-17T03:59:02;127.10;;;62.10;;
76867;SDS011;66168;45.478;11.060;2023-02-17T04:01:30;120.90;;;61.70;;
76867;SDS011;66168;45.478;11.060;2023-02-17T04:03:57;120.70;;;61.30;;
76867;SDS011;66168;45.478;11.060;2023-02-17T04:06:23;133.10;;;62.80;;
76867;SDS011;66168;45.478;11.060;2023-02-17T04:08:50;139.80;;;66.20;;
76867;SDS011;66168;45.478;11.060;2023-02-17T04:11:17;146.10;;;70.40;;
76867;SDS011;66168;45.478;11.060;2023-02-17T04:13:44;123.30;;;63.30;;
76867;SDS011;66168;45.478;11.060;2023-02-17T04:16:11;110.10;;;54.10;;
76867;SDS011;66168;45.478;11.060;2023-02-17T04:18:37;109.80;;;53.60;;
76867;SDS011;66168;45.478;11.060;2023-02-17T04:21:05;114.50;;;56.50;;
76867;SDS011;66168;45.478;11.060;2023-02-17T04:23:36;114.40;;;55.50;;
76867;SDS011;66168;45.478;11.060;2023-02-17T04:26:04;107.60;;;53.60;;
76867;SDS011;66168;45.478;11.060;2023-02-17T04:28:33;116.40;;;55.80;;
76867;SDS011;66168;45.478;11.060;2023-02-17T04:31:02;107.40;;;54.10;;
76867;SDS011;66168;45.478;11.060;2023-02-17T04:33:30;106.50;;;53.00;;
76867;SDS011;66168;45.478;11.060;2023-02-17T04:35:56;103.60;;;55.60;;
76867;SDS011;66168;45.478;11.060;2023-02-17T04:38:26;107.50;;;52.30;;
76867;SDS011;66168;45.478;11.060;2023-02-17T04:40:54;116.20;;;56.80;;
76867;SDS011;66168;45.478;11.060;2023-02-17T04:43:22;127.20;;;60.10;;
76867;SDS011;66168;45.478;11.060;2023-02-17T04:45:50;126.50;;;62.50;;
76867;SDS011;66168;45.478;11.060;2023-02-17T04:48:18;109.50;;;55.50;;
76867;SDS011;66168;45.478;11.060;2023-02-17T04:50:45;113.80;;;56.30;;
76867;SDS011;66168;45.478;11.060;2023-02-17T04:53:12;111.00;;;55.10;;
76867;SDS011;66168;45.478;11.060;2023-02-17T04:55:41;108.60;;;55.60;;
76867;SDS011;66168;45.478;11.060;2023-02-17T04:58:08;106.60;;;54.50;;
76867;SDS011;66168;45.478;11.060;2023-02-17T05:00:35;112.30;;;56.90;;
76867;SDS011;66168;45.478;11.060;2023-02-17T05:03:02;108.60;;;57.80;;
76867;SDS011;66168;45.478;11.060;2023-02-17T05:05:29;111.00;;;58.20;;
76867;SDS011;66168;45.478;11.060;2023-02-17T05:07:56;119.80;;;58.80;;
76867;SDS011;66168;45.478;11.060;2023-02-17T05:10:23;118.50;;;60.10;;
76867;SDS011;66168;45.478;11.060;2023-02-17T05:12:50;122.50;;;61.30;;
76867;SDS011;66168;45.478;11.060;2023-02-17T05:15:18;131.30;;;63.00;;
76867;SDS011;66168;45.478;11.060;2023-02-17T05:17:45;133.30;;;65.70;;
76867;SDS011;66168;45.478;11.060;2023-02-17T05:20:12;126.20;;;60.60;;
76867;SDS011;66168;45.478;11.060;2023-02-17T05:22:38;121.30;;;59.20;;
76867;SDS011;66168;45.478;11.060;2023-02-17T05:25:05;116.80;;;57.80;;
76867;SDS011;66168;45.478;11.060;2023-02-17T05:27:32;124.60;;;60.20;;
76867;SDS011;66168;45.478;11.060;2023-02-17T05:29:59;116.30;;;56.30;;
76867;SDS011;66168;45.478;11.060;2023-02-17T05:32:26;117.20;;;57.10;;
76867;SDS011;66168;45.478;11.060;2023-02-17T05:34:53;105.10;;;53.30;;
76867;SDS011;66168;45.478;11.060;2023-02-17T05:37:20;111.70;;;53.30;;
76867;SDS011;66168;45.478;11.060;2023-02-17T05:39:47;83.60;;;42.30;;
76867;SDS011;66168;45.478;11.060;2023-02-17T05:42:13;94.20;;;46.50;;
76867;SDS011;66168;45.478;11.060;2023-02-17T05:44:41;92.30;;;49.80;;
76867;SDS011;66168;45.478;11.060;2023-02-17T05:47:07;100.40;;;51.20;;
76867;SDS011;66168;45.478;11.060;2023-02-17T05:49:34;99.30;;;49.90;;
76867;SDS011;66168;45.478;11.060;2023-02-17T05:52:01;101.20;;;51.60;;
76867;SDS011;66168;45.478;11.060;2023-02-17T05:54:28;71.40;;;38.90;;
76867;SDS011;66168;45.478;11.060;2023-02-17T05:56:55;77.90;;;41.00;;
76867;SDS011;66168;45.478;11.060;2023-02-17T05:59:22;79.40;;;41.00;;
76867;SDS011;66168;45.478;11.060;2023-02-17T06:01:49;76.70;;;41.60;;
76867;SDS011;66168;45.478;11.060;2023-02-17T06:04:16;72.40;;;39.90;;
76867;SDS011;66168;45.478;11.060;2023-02-17T06:06:42;68.60;;;39.60;;
76867;SDS011;66168;45.478;11.060;2023-02-17T06:09:09;70.80;;;39.60;;
76867;SDS011;66168;45.478;11.060;2023-02-17T06:11:36;70.60;;;39.10;;
76867;SDS011;66168;45.478;11.060;2023-02-17T06:14:03;57.90;;;32.60;;
76867;SDS011;66168;45.478;11.060;2023-02-17T06:16:29;50.10;;;31.20;;
76867;SDS011;66168;45.478;11.060;2023-02-17T06:18:56;64.90;;;37.70;;
76867;SDS011;66168;45.478;11.060;2023-02-17T06:21:25;61.80;;;39.80;;
76867;SDS011;66168;45.478;11.060;2023-02-17T06:23:52;53.50;;;33.40;;
76867;SDS011;66168;45.478;11.060;2023-02-17T06:26:19;51.60;;;30.90;;
76867;SDS011;66168;45.478;11.060;2023-02-17T06:28:45;56.20;;;32.30;;
76867;SDS011;66168;45.478;11.060;2023-02-17T06:31:12;66.30;;;36.50;;
76867;SDS011;66168;45.478;11.060;2023-02-17T06:33:39;67.30;;;36.70;;
76867;SDS011;66168;45.478;11.060;2023-02-17T06:36:06;47.30;;;28.80;;
76867;SDS011;66168;45.478;11.060;2023-02-17T06:38:33;56.40;;;33.40;;
76867;SDS011;66168;45.478;11.060;2023-02-17T06:41:00;51.10;;;30.80;;
76867;SDS011;66168;45.478;11.060;2023-02-17T06:43:27;41.40;;;26.60;;
76867;SDS011;66168;45.478;11.060;2023-02-17T06:45:53;40.80;;;26.40;;
76867;SDS011;66168;45.478;11.060;2023-02-17T06:48:20;40.30;;;28.10;;
76867;SDS011;66168;45.478;11.060;2023-02-17T06:50:50;38.50;;;26.30;;
76867;SDS011;66168;45.478;11.060;2023-02-17T06:53:16;30.50;;;23.70;;
76867;SDS011;66168;45.478;11.060;2023-02-17T06:55:43;44.20;;;29.50;;
76867;SDS011;66168;45.478;11.060;2023-02-17T06:58:10;49.70;;;31.50;;
76867;SDS011;66168;45.478;11.060;2023-02-17T07:00:37;50.50;;;30.70;;
76867;SDS011;66168;45.478;11.060;2023-02-17T07:03:04;56.70;;;34.40;;
76867;SDS011;66168;45.478;11.060;2023-02-17T07:05:33;59.50;;;35.30;;
76867;SDS011;66168;45.478;11.060;2023-02-17T07:08:02;59.20;;;36.30;;
76867;SDS011;66168;45.478;11.060;2023-02-17T07:10:29;56.40;;;35.40;;
76867;SDS011;66168;45.478;11.060;2023-02-17T07:12:56;58.30;;;34.70;;
76867;SDS011;66168;45.478;11.060;2023-02-17T07:15:23;61.50;;;34.60;;
76867;SDS011;66168;45.478;11.060;2023-02-17T07:17:50;68.20;;;40.20;;
76867;SDS011;66168;45.478;11.060;2023-02-17T07:20:16;68.00;;;38.20;;
76867;SDS011;66168;45.478;11.060;2023-02-17T07:22:43;52.00;;;33.60;;
76867;SDS011;66168;45.478;11.060;2023-02-17T07:25:10;45.60;;;30.60;;
76867;SDS011;66168;45.478;11.060;2023-02-17T07:27:37;51.70;;;33.00;;
76867;SDS011;66168;45.478;11.060;2023-02-17T07:30:04;47.50;;;30.60;;
76867;SDS011;66168;45.478;11.060;2023-02-17T07:32:31;45.70;;;29.90;;
76867;SDS011;66168;45.478;11.060;2023-02-17T07:34:58;48.30;;;31.50;;
76867;SDS011;66168;45.478;11.060;2023-02-17T07:37:25;48.20;;;31.10;;
76867;SDS011;66168;45.478;11.060;2023-02-17T07:39:52;49.40;;;30.30;;
76867;SDS011;66168;45.478;11.060;2023-02-17T07:42:18;50.10;;;32.20;;
76867;SDS011;66168;45.478;11.060;2023-02-17T07:44:45;48.40;;;30.90;;
76867;SDS011;66168;45.478;11.060;2023-02-17T07:47:12;42.20;;;28.80;;
76867;SDS011;66168;45.478;11.060;2023-02-17T07:49:39;38.90;;;26.50;;
76867;SDS011;66168;45.478;11.060;2023-02-17T07:52:05;46.30;;;31.10;;
76867;SDS011;66168;45.478;11.060;2023-02-17T07:54:32;48.60;;;31.40;;
76867;SDS011;66168;45.478;11.060;2023-02-17T07:56:59;45.60;;;28.70;;
76867;SDS011;66168;45.478;11.060;2023-02-17T07:59:25;48.60;;;31.50;;
76867;SDS011;66168;45.478;11.060;2023-02-17T08:01:52;42.80;;;29.70;;
76867;SDS011;66168;45.478;11.060;2023-02-17T08:04:19;51.20;;;33.30;;
76867;SDS011;66168;45.478;11.060;2023-02-17T08:06:46;53.10;;;33.10;;
76867;SDS011;66168;45.478;11.060;2023-02-17T08:09:12;58.50;;;35.80;;
76867;SDS011;66168;45.478;11.060;2023-02-17T08:11:58;66.40;;;39.10;;
76867;SDS011;66168;45.478;11.060;2023-02-17T08:14:44;68.60;;;39.30;;
76867;SDS011;66168;45.478;11.060;2023-02-17T08:17:11;65.30;;;37.90;;
76867;SDS011;66168;45.478;11.060;2023-02-17T08:19:37;69.60;;;40.10;;
76867;SDS011;66168;45.478;11.060;2023-02-17T08:22:14;64.70;;;37.00;;
76867;SDS011;66168;45.478;11.060;2023-02-17T08:24:41;67.90;;;40.10;;
76867;SDS011;66168;45.478;11.060;2023-02-17T08:27:08;69.20;;;41.40;;
76867;SDS011;66168;45.478;11.060;2023-02-17T08:29:35;74.80;;;44.20;;
76867;SDS011;66168;45.478;11.060;2023-02-17T08:32:02;85.40;;;48.00;;
76867;SDS011;66168;45.478;11.060;2023-02-17T08:34:29;74.90;;;44.70;;
76867;SDS011;66168;45.478;11.060;2023-02-17T08:36:59;75.90;;;44.20;;
76867;SDS011;66168;45.478;11.060;2023-02-17T08:39:30;66.30;;;40.00;;
76867;SDS011;66168;45.478;11.060;2023-02-17T08:41:57;71.70;;;42.10;;
76867;SDS011;66168;45.478;11.060;2023-02-17T08:44:24;78.10;;;43.70;;
76867;SDS011;66168;45.478;11.060;2023-02-17T08:46:54;79.50;;;45.40;;
76867;SDS011;66168;45.478;11.060;2023-02-17T08:49:22;99.10;;;54.00;;
76867;SDS011;66168;45.478;11.060;2023-02-17T08:51:50;118.70;;;63.30;;
76867;SDS011;66168;45.478;11.060;2023-02-17T08:54:18;110.40;;;61.60;;
76867;SDS011;66168;45.478;11.060;2023-02-17T08:56:45;88.90;;;48.90;;
76867;SDS011;66168;45.478;11.060;2023-02-17T08:59:12;95.10;;;52.50;;
76867;SDS011;66168;45.478;11.060;2023-02-17T09:01:39;94.20;;;52.40;;
76867;SDS011;66168;45.478;11.060;2023-02-17T09:04:11;99.60;;;53.20;;
76867;SDS011;66168;45.478;11.060;2023-02-17T09:06:40;99.70;;;55.10;;
76867;SDS011;66168;45.478;11.060;2023-02-17T09:09:10;92.50;;;50.40;;
76867;SDS011;66168;45.478;11.060;2023-02-17T09:11:38;88.10;;;51.40;;
76867;SDS011;66168;45.478;11.060;2023-02-17T09:14:06;81.10;;;44.10;;
76867;SDS011;66168;45.478;11.060;2023-02-17T09:16:33;100.50;;;53.40;;
76867;SDS011;66168;45.478;11.060;2023-02-17T09:19:00;101.60;;;54.50;;
76867;SDS011;66168;45.478;11.060;2023-02-17T09:21:27;102.20;;;57.70;;
76867;SDS011;66168;45.478;11.060;2023-02-17T09:23:54;110.50;;;59.40;;
76867;SDS011;66168;45.478;11.060;2023-02-17T09:26:20;113.20;;;62.80;;
76867;SDS011;66168;45.478;11.060;2023-02-17T09:28:48;104.50;;;58.70;;
76867;SDS011;66168;45.478;11.060;2023-02-17T09:31:16;99.20;;;55.80;;
76867;SDS011;66168;45.478;11.060;2023-02-17T09:33:46;106.50;;;57.60;;
76867;SDS011;66168;45.478;11.060;2023-02-17T09:36:16;117.60;;;63.40;;
76867;SDS011;66168;45.478;11.060;2023-02-17T09:38:45;121.30;;;67.50;;
76867;SDS011;66168;45.478;11.060;2023-02-17T09:44:05;121.10;;;65.80;;
76867;SDS011;66168;45.478;11.060;2023-02-17T09:46:40;112.20;;;62.70;;
76867;SDS011;66168;45.478;11.060;2023-02-17T09:49:27;109.50;;;60.40;;
76867;SDS011;66168;45.478;11.060;2023-02-17T09:52:15;113.60;;;63.10;;
76867;SDS011;66168;45.478;11.060;2023-02-17T09:57:24;103.20;;;57.60;;
76867;SDS011;66168;45.478;11.060;2023-02-17T09:59:56;101.30;;;55.80;;
76867;SDS011;66168;45.478;11.060;2023-02-17T10:02:54;105.60;;;59.40;;
76867;SDS011;66168;45.478;11.060;2023-02-17T10:05:27;108.80;;;60.60;;
76867;SDS011;66168;45.478;11.060;2023-02-17T10:10:52;101.00;;;59.50;;
76867;SDS011;66168;45.478;11.060;2023-02-17T10:13:25;97.90;;;50.70;;
76867;SDS011;66168;45.478;11.060;2023-02-17T10:15:57;92.60;;;52.90;;
76867;SDS011;66168;45.478;11.060;2023-02-17T10:18:40;96.00;;;54.20;;
76867;SDS011;66168;45.478;11.060;2023-02-17T10:21:43;103.60;;;55.70;;
76867;SDS011;66168;45.478;11.060;2023-02-17T10:24:13;111.10;;;60.70;;
76867;SDS011;66168;45.478;11.060;2023-02-17T10:26:45;117.40;;;62.30;;
76867;SDS011;66168;45.478;11.060;2023-02-17T10:29:25;112.00;;;63.40;;
76867;SDS011;66168;45.478;11.060;2023-02-17T10:32:21;105.90;;;61.40;;
76867;SDS011;66168;45.478;11.060;2023-02-17T10:40:52;132.80;;;73.20;;
76867;SDS011;66168;45.478;11.060;2023-02-17T10:43:21;116.10;;;65.60;;
76867;SDS011;66168;45.478;11.060;2023-02-17T10:45:52;129.90;;;68.30;;
76867;SDS011;66168;45.478;11.060;2023-02-17T10:48:23;122.90;;;69.20;;
76867;SDS011;66168;45.478;11.060;2023-02-17T10:50:56;125.80;;;70.10;;
76867;SDS011;66168;45.478;11.060;2023-02-17T10:53:35;133.30;;;72.00;;
76867;SDS011;66168;45.478;11.060;2023-02-17T10:56:21;128.80;;;69.90;;
76867;SDS011;66168;45.478;11.060;2023-02-17T10:58:56;125.50;;;66.70;;
76867;SDS011;66168;45.478;11.060;2023-02-17T11:01:31;131.00;;;72.90;;
76867;SDS011;66168;45.478;11.060;2023-02-17T11:04:04;131.30;;;75.00;;
76867;SDS011;66168;45.478;11.060;2023-02-17T11:06:36;133.70;;;72.50;;
76867;SDS011;66168;45.478;11.060;2023-02-17T11:09:16;135.00;;;71.20;;
76867;SDS011;66168;45.478;11.060;2023-02-17T11:12:01;120.90;;;68.50;;
76867;SDS011;66168;45.478;11.060;2023-02-17T11:14:36;126.30;;;69.40;;
76867;SDS011;66168;45.478;11.060;2023-02-17T11:22:45;106.00;;;59.00;;
76867;SDS011;66168;45.478;11.060;2023-02-17T11:25:33;119.80;;;63.40;;
76867;SDS011;66168;45.478;11.060;2023-02-17T11:28:04;93.00;;;52.70;;
76867;SDS011;66168;45.478;11.060;2023-02-17T11:30:51;123.50;;;66.60;;
76867;SDS011;66168;45.478;11.060;2023-02-17T11:33:22;117.40;;;65.90;;
76867;SDS011;66168;45.478;11.060;2023-02-17T11:36:20;99.10;;;54.00;;
76867;SDS011;66168;45.478;11.060;2023-02-17T11:38:55;111.40;;;62.80;;
76867;SDS011;66168;45.478;11.060;2023-02-17T11:41:22;114.60;;;64.60;;
76867;SDS011;66168;45.478;11.060;2023-02-17T11:43:50;107.30;;;61.80;;
76867;SDS011;66168;45.478;11.060;2023-02-17T11:46:31;113.00;;;62.00;;
76867;SDS011;66168;45.478;11.060;2023-02-17T11:49:14;107.60;;;62.50;;
76867;SDS011;66168;45.478;11.060;2023-02-17T11:54:41;91.30;;;49.60;;
76867;SDS011;66168;45.478;11.060;2023-02-17T12:00:31;108.80;;;60.40;;
76867;SDS011;66168;45.478;11.060;2023-02-17T12:09:11;96.00;;;54.00;;
76867;SDS011;66168;45.478;11.060;2023-02-17T12:14:51;97.70;;;54.80;;
76867;SDS011;66168;45.478;11.060;2023-02-17T12:28:32;84.80;;;48.80;;
76867;SDS011;66168;45.478;11.060;2023-02-17T12:31:14;84.60;;;47.00;;
76867;SDS011;66168;45.478;11.060;2023-02-17T12:37:03;87.00;;;51.60;;
76867;SDS011;66168;45.478;11.060;2023-02-17T12:45:05;47.80;;;28.90;;
76867;SDS011;66168;45.478;11.060;2023-02-17T12:47:58;42.90;;;27.40;;
76867;SDS011;66168;45.478;11.060;2023-02-17T12:50:37;46.10;;;26.60;;
76867;SDS011;66168;45.478;11.060;2023-02-17T12:53:12;42.70;;;26.50;;
76867;SDS011;66168;45.478;11.060;2023-02-17T12:55:51;44.70;;;28.60;;
76867;SDS011;66168;45.478;11.060;2023-02-17T12:58:26;48.10;;;28.50;;
76867;SDS011;66168;45.478;11.060;2023-02-17T13:00:59;47.30;;;29.50;;
76867;SDS011;66168;45.478;11.060;2023-02-17T13:03:32;43.30;;;27.10;;
76867;SDS011;66168;45.478;11.060;2023-02-17T13:11:24;40.70;;;26.10;;
76867;SDS011;66168;45.478;11.060;2023-02-17T13:13:55;40.90;;;27.40;;
76867;SDS011;66168;45.478;11.060;2023-02-17T13:16:22;39.40;;;25.70;;
76867;SDS011;66168;45.478;11.060;2023-02-17T13:18:50;46.30;;;28.20;;
76867;SDS011;66168;45.478;11.060;2023-02-17T13:31:57;32.30;;;20.40;;
76867;SDS011;66168;45.478;11.060;2023-02-17T13:34:47;34.40;;;23.00;;
76867;SDS011;66168;45.478;11.060;2023-02-17T13:37:25;34.30;;;23.30;;
76867;SDS011;66168;45.478;11.060;2023-02-17T13:42:41;34.80;;;21.90;;
76867;SDS011;66168;45.478;11.060;2023-02-17T13:47:53;31.00;;;20.10;;
76867;SDS011;66168;45.478;11.060;2023-02-17T13:52:53;27.60;;;19.30;;
76867;SDS011;66168;45.478;11.060;2023-02-17T13:55:22;30.00;;;18.20;;
76867;SDS011;66168;45.478;11.060;2023-02-17T13:57:53;30.20;;;19.30;;
76867;SDS011;66168;45.478;11.060;2023-02-17T14:00:29;32.70;;;20.90;;
76867;SDS011;66168;45.478;11.060;2023-02-17T14:03:19;30.60;;;20.60;;
76867;SDS011;66168;45.478;11.060;2023-02-17T14:05:49;33.70;;;20.80;;
76867;SDS011;66168;45.478;11.060;2023-02-17T14:13:46;28.90;;;19.60;;
76867;SDS011;66168;45.478;11.060;2023-02-17T14:19:07;32.20;;;20.90;;
76867;SDS011;66168;45.478;11.060;2023-02-17T14:26:59;29.60;;;19.00;;
76867;SDS011;66168;45.478;11.060;2023-02-17T14:29:36;29.30;;;20.80;;
76867;SDS011;66168;45.478;11.060;2023-02-17T14:32:04;32.00;;;19.80;;
76867;SDS011;66168;45.478;11.060;2023-02-17T14:34:33;27.50;;;18.50;;
76867;SDS011;66168;45.478;11.060;2023-02-17T14:37:08;25.20;;;17.80;;
76867;SDS011;66168;45.478;11.060;2023-02-17T14:39:42;26.40;;;17.40;;
76867;SDS011;66168;45.478;11.060;2023-02-17T14:42:09;26.10;;;17.10;;
76867;SDS011;66168;45.478;11.060;2023-02-17T14:44:36;26.80;;;16.60;;
76867;SDS011;66168;45.478;11.060;2023-02-17T14:47:03;26.20;;;17.40;;
76867;SDS011;66168;45.478;11.060;2023-02-17T14:49:29;24.10;;;15.70;;
76867;SDS011;66168;45.478;11.060;2023-02-17T14:51:56;25.20;;;16.90;;
76867;SDS011;66168;45.478;11.060;2023-02-17T14:54:22;29.60;;;19.20;;
76867;SDS011;66168;45.478;11.060;2023-02-17T14:57:01;26.60;;;18.10;;
76867;SDS011;66168;45.478;11.060;2023-02-17T14:59:31;24.40;;;16.30;;
76867;SDS011;66168;45.478;11.060;2023-02-17T15:01:58;23.90;;;15.90;;
76867;SDS011;66168;45.478;11.060;2023-02-17T15:04:25;23.90;;;15.70;;
76867;SDS011;66168;45.478;11.060;2023-02-17T15:06:52;26.60;;;17.00;;
76867;SDS011;66168;45.478;11.060;2023-02-17T15:09:28;25.30;;;17.80;;
76867;SDS011;66168;45.478;11.060;2023-02-17T15:11:57;24.50;;;17.30;;
76867;SDS011;66168;45.478;11.060;2023-02-17T15:14:23;22.30;;;15.70;;
76867;SDS011;66168;45.478;11.060;2023-02-17T15:16:50;24.60;;;15.00;;
76867;SDS011;66168;45.478;11.060;2023-02-17T15:19:17;25.30;;;17.00;;
76867;SDS011;66168;45.478;11.060;2023-02-17T15:21:48;23.60;;;16.50;;
76867;SDS011;66168;45.478;11.060;2023-02-17T15:24:21;26.00;;;16.90;;
76867;SDS011;66168;45.478;11.060;2023-02-17T15:26:55;26.30;;;16.40;;
76867;SDS011;66168;45.478;11.060;2023-02-17T15:29:22;25.20;;;16.60;;
76867;SDS011;66168;45.478;11.060;2023-02-17T15:31:53;28.00;;;17.50;;
76867;SDS011;66168;45.478;11.060;2023-02-17T15:34:30;25.30;;;16.60;;
76867;SDS011;66168;45.478;11.060;2023-02-17T15:36:58;28.70;;;17.90;;
76867;SDS011;66168;45.478;11.060;2023-02-17T15:39:26;29.90;;;21.50;;
76867;SDS011;66168;45.478;11.060;2023-02-17T15:41:54;32.10;;;21.50;;
76867;SDS011;66168;45.478;11.060;2023-02-17T15:44:34;35.30;;;22.40;;
76867;SDS011;66168;45.478;11.060;2023-02-17T15:47:11;37.60;;;23.40;;
76867;SDS011;66168;45.478;11.060;2023-02-17T15:49:41;35.60;;;22.90;;
76867;SDS011;66168;45.478;11.060;2023-02-17T15:52:12;39.10;;;24.70;;
76867;SDS011;66168;45.478;11.060;2023-02-17T15:54:40;36.00;;;24.90;;
76867;SDS011;66168;45.478;11.060;2023-02-17T15:57:14;33.80;;;22.60;;
76867;SDS011;66168;45.478;11.060;2023-02-17T15:59:46;34.80;;;22.20;;
76867;SDS011;66168;45.478;11.060;2023-02-17T16:02:16;33.20;;;23.50;;
76867;SDS011;66168;45.478;11.060;2023-02-17T16:04:46;34.20;;;22.70;;
76867;SDS011;66168;45.478;11.060;2023-02-17T16:07:13;39.70;;;24.30;;
76867;SDS011;66168;45.478;11.060;2023-02-17T16:09:40;36.50;;;23.60;;
76867;SDS011;66168;45.478;11.060;2023-02-17T16:12:11;43.00;;;28.20;;
76867;SDS011;66168;45.478;11.060;2023-02-17T16:14:42;51.10;;;33.90;;
76867;SDS011;66168;45.478;11.060;2023-02-17T16:17:11;47.60;;;32.90;;
76867;SDS011;66168;45.478;11.060;2023-02-17T16:19:40;48.40;;;32.00;;
76867;SDS011;66168;45.478;11.060;2023-02-17T16:22:08;44.90;;;28.30;;
76867;SDS011;66168;45.478;11.060;2023-02-17T16:24:34;46.60;;;27.90;;
76867;SDS011;66168;45.478;11.060;2023-02-17T16:27:01;44.30;;;27.90;;
76867;SDS011;66168;45.478;11.060;2023-02-17T16:29:28;41.20;;;26.30;;